Estación Meteorológica Peña el Pijo (Robertgarden) [ 11/12/18 20:33:55 CET ]

Fecha Hora Presion(HPa) Temp (°C) Humedad % Rocio (°C) Viento ( m/s) Direccion Lluvia 1Hora(mm) Lluvia 24H(mm) LLuvia Total(mm)
2018-Jul-14 01:01:48 1012.200 19.3 70 13.7         269.36
2018-Jul-14 02:01:34 1012.300 17.8 73 12.9         269.36
2018-Jul-14 03:01:58 1012.100 16.7 77 12.6         269.36
2018-Jul-14 04:02:05 1011.900 15.8 78 12.0         269.36
2018-Jul-14 05:01:58 1011.600 15.3 80 11.9         269.36
2018-Jul-14 06:01:38 1011.700 14.9 81 11.7         269.36
2018-Jul-14 07:01:39 1012.000 14.4 82 11.4         269.36
2018-Jul-14 08:01:44 1012.300 15.6 84 12.9         269.36
2018-Jul-14 09:01:40 1012.300 20.8 77 16.6         269.36
2018-Jul-14 10:01:28 1012.400 26.0 57 16.8         269.36
2018-Jul-14 11:01:24 1012.300 29.9 37 13.6         269.36
2018-Jul-14 12:01:27 1012.300 33.6 32 14.6         269.36
2018-Jul-14 13:01:34 1012.300 34.8 21 9.1         269.36
2018-Jul-14 14:01:44 1012.100 34.4 18 6.3         269.36
2018-Jul-14 15:02:00 1011.800 35.6 18 7.2         269.36
2018-Jul-14 16:01:35 1011.600 35.6 19 8.2         269.36
2018-Jul-14 17:01:42 1011.300 35.6 19 8.2         269.36
2018-Jul-14 18:01:42 1011.200 34.8 18 6.6         269.36
2018-Jul-14 19:01:35 1010.700 33.5 18 5.5         269.36
2018-Jul-14 20:01:46 1011.000 31.9 19 5.2 2.9 WNW     269.36
2018-Jul-14 21:01:48 1011.400 28.8 25 6.6         269.36
2018-Jul-14 22:01:47 1011.800 24.4 32 6.6         269.36
2018-Jul-14 23:01:48 1012.800 21.9 36 6.1         269.36

Temperatura Máxima:35°    Temperatura Mínima:14°
Presión Máxima:1012.800 Hpa    Presión Mínima:1010.700 Hpa


Volver